Time;durP1;ratioP1;P1;durP2;ratioP2;P2;SDS_P1;SDS_P2;PMS_P1;PMS_P2;Temp;Humidity;BMP_temperature;BMP_pressure;BME280_temperature;BME280_humidity;BME280_pressure;Samples;Min_cycle;Max_cycle;Signal;HPM_P1;HPM_P2
2023/06/17 00:00:32;;;;;;;5.00;4.50;;;;;;;;;;5060074;28;20315;-79
2023/06/17 00:02:59;;;;;;;6.20;4.50;;;;;;;;;;5064131;28;20205;-79
2023/06/17 00:05:26;;;;;;;5.00;4.60;;;;;;;;;;5062464;28;20232;-79
2023/06/17 00:07:53;;;;;;;6.77;4.53;;;;;;;;;;5059790;28;20197;-79
2023/06/17 00:10:20;;;;;;;4.97;4.47;;;;;;;;;;5063035;28;20234;-79
2023/06/17 00:12:49;;;;;;;7.40;4.40;;;;;;;;;;5059368;28;20213;-79
2023/06/17 00:15:17;;;;;;;4.70;4.30;;;;;;;;;;5057593;28;20228;-79
2023/06/17 00:17:46;;;;;;;4.67;4.27;;;;;;;;;;5060419;28;20308;-79
2023/06/17 00:20:14;;;;;;;5.00;4.37;;;;;;;;;;5062749;28;20228;-79
2023/06/17 00:22:43;;;;;;;4.77;4.33;;;;;;;;;;5064281;28;20232;-79
2023/06/17 00:25:11;;;;;;;4.67;4.27;;;;;;;;;;5062638;28;20629;-79
2023/06/17 00:27:38;;;;;;;5.13;4.20;;;;;;;;;;5059042;28;20731;-79
2023/06/17 00:30:07;;;;;;;4.77;4.27;;;;;;;;;;5065568;28;20232;-79
2023/06/17 00:32:34;;;;;;;4.83;4.40;;;;;;;;;;5060371;28;20202;-79
2023/06/17 00:35:03;;;;;;;5.20;4.37;;;;;;;;;;5063006;28;20232;-79
2023/06/17 00:37:30;;;;;;;6.10;4.30;;;;;;;;;;5070917;28;20603;-79
2023/06/17 00:39:57;;;;;;;4.43;4.03;;;;;;;;;;5062172;28;21015;-79
2023/06/17 00:42:24;;;;;;;6.30;4.57;;;;;;;;;;5063049;28;20696;-79
2023/06/17 00:44:51;;;;;;;5.07;4.40;;;;;;;;;;5061813;28;20228;-79
2023/06/17 00:47:20;;;;;;;5.73;4.53;;;;;;;;;;5070864;28;20636;-79
2023/06/17 00:49:48;;;;;;;7.20;4.10;;;;;;;;;;5059474;28;20659;-79
2023/06/17 00:52:15;;;;;;;4.63;4.23;;;;;;;;;;5059085;28;20221;-79
2023/06/17 00:54:43;;;;;;;5.97;4.57;;;;;;;;;;5067082;28;20259;-79
2023/06/17 00:57:11;;;;;;;6.67;4.37;;;;;;;;;;5059241;28;20317;-79
2023/06/17 00:59:39;;;;;;;4.50;4.10;;;;;;;;;;5058412;28;20234;-79
2023/06/17 01:02:09;;;;;;;5.03;4.50;;;;;;;;;;5052252;28;20248;-79
2023/06/17 01:04:38;;;;;;;7.30;4.37;;;;;;;;;;5066958;28;20248;-79
2023/06/17 01:07:09;;;;;;;5.30;4.80;;;;;;;;;;5059873;28;20228;-79
2023/06/17 01:09:39;;;;;;;6.07;4.77;;;;;;;;;;5060461;28;20265;-79
2023/06/17 01:12:07;;;;;;;5.03;4.33;;;;;;;;;;5051975;28;20623;-79
2023/06/17 01:14:34;;;;;;;6.87;5.00;;;;;;;;;;5058521;28;20234;-78
2023/06/17 01:17:03;;;;;;;6.00;4.73;;;;;;;;;;5066343;28;20233;-79
2023/06/17 01:19:31;;;;;;;6.40;5.00;;;;;;;;;;5066928;28;20232;-79
2023/06/17 01:22:00;;;;;;;5.20;4.77;;;;;;;;;;5067162;28;20225;-79
2023/06/17 01:24:29;;;;;;;7.30;5.20;;;;;;;;;;5060331;28;20228;-79
2023/06/17 01:26:59;;;;;;;6.07;5.03;;;;;;;;;;5058438;28;20194;-79
2023/06/17 01:29:29;;;;;;;8.13;4.83;;;;;;;;;;5066075;28;20324;-79
2023/06/17 01:31:57;;;;;;;5.17;4.67;;;;;;;;;;5070220;28;20349;-79
2023/06/17 01:34:27;;;;;;;5.47;4.80;;;;;;;;;;5054742;28;20233;-79
2023/06/17 01:36:55;;;;;;;5.07;4.57;;;;;;;;;;5062122;28;20636;-79
2023/06/17 01:39:24;;;;;;;6.33;4.83;;;;;;;;;;5069295;28;20237;-79
2023/06/17 01:41:54;;;;;;;4.87;4.33;;;;;;;;;;5061419;28;20902;-79
2023/06/17 01:44:21;;;;;;;5.23;4.60;;;;;;;;;;5073578;28;20251;-79
2023/06/17 01:46:49;;;;;;;4.90;4.50;;;;;;;;;;5065324;28;20683;-79
2023/06/17 01:49:16;;;;;;;4.93;4.33;;;;;;;;;;5059105;28;20623;-79
2023/06/17 01:51:43;;;;;;;5.87;4.57;;;;;;;;;;5063527;28;20225;-79
2023/06/17 01:54:10;;;;;;;7.63;4.67;;;;;;;;;;5073564;28;20600;-79
2023/06/17 01:56:37;;;;;;;5.37;4.87;;;;;;;;;;5056601;28;20253;-79
2023/06/17 01:59:06;;;;;;;5.73;5.10;;;;;;;;;;5066252;28;20225;-79
2023/06/17 02:01:33;;;;;;;5.77;4.97;;;;;;;;;;5065309;28;20217;-79
2023/06/17 02:04:00;;;;;;;6.73;4.70;;;;;;;;;;5065131;28;20229;-79
2023/06/17 02:06:27;;;;;;;5.17;4.40;;;;;;;;;;5066129;28;20202;-79
2023/06/17 02:08:54;;;;;;;4.80;4.40;;;;;;;;;;5065437;28;20225;-78
2023/06/17 02:11:21;;;;;;;5.77;5.17;;;;;;;;;;5059723;28;20825;-79
2023/06/17 02:13:48;;;;;;;4.60;4.10;;;;;;;;;;5069288;28;20210;-78
2023/06/17 02:16:16;;;;;;;4.90;4.33;;;;;;;;;;5059058;28;20228;-79
2023/06/17 02:18:43;;;;;;;4.70;4.30;;;;;;;;;;5061458;28;20208;-78
2023/06/17 02:21:10;;;;;;;5.73;5.07;;;;;;;;;;5065339;28;20221;-79
2023/06/17 02:23:37;;;;;;;5.30;4.80;;;;;;;;;;5056474;28;20210;-78
2023/06/17 02:26:04;;;;;;;5.60;4.73;;;;;;;;;;5060533;28;20202;-79
2023/06/17 02:28:31;;;;;;;7.03;4.67;;;;;;;;;;5054270;28;20201;-79
2023/06/17 02:30:59;;;;;;;5.80;4.73;;;;;;;;;;5064665;28;20290;-79
2023/06/17 02:33:27;;;;;;;5.33;4.77;;;;;;;;;;5065090;28;20204;-79
2023/06/17 02:35:54;;;;;;;8.50;5.00;;;;;;;;;;5054446;28;20234;-79
2023/06/17 02:38:24;;;;;;;4.87;4.37;;;;;;;;;;5059910;28;20208;-79
2023/06/17 02:40:51;;;;;;;5.63;4.87;;;;;;;;;;5058711;28;20238;-79
2023/06/17 02:43:18;;;;;;;4.97;4.47;;;;;;;;;;5067316;28;20205;-79
2023/06/17 02:45:45;;;;;;;6.97;4.33;;;;;;;;;;5069470;28;20240;-79
2023/06/17 02:48:12;;;;;;;5.93;4.90;;;;;;;;;;5072275;28;20569;-79
2023/06/17 02:50:41;;;;;;;6.37;4.70;;;;;;;;;;5064350;28;20233;-79
2023/06/17 02:53:08;;;;;;;6.87;4.57;;;;;;;;;;5052711;28;20201;-79
2023/06/17 02:55:35;;;;;;;4.90;4.40;;;;;;;;;;5071409;28;20239;-78
2023/06/17 02:58:03;;;;;;;7.03;4.83;;;;;;;;;;5064611;28;20237;-79
2023/06/17 03:00:30;;;;;;;5.67;4.77;;;;;;;;;;5064856;28;20317;-79
2023/06/17 03:02:57;;;;;;;5.73;5.00;;;;;;;;;;5058864;28;20647;-79
2023/06/17 03:05:24;;;;;;;6.13;4.60;;;;;;;;;;5056956;28;20715;-79
2023/06/17 03:07:53;;;;;;;6.57;5.20;;;;;;;;;;5062085;28;20209;-79
2023/06/17 03:10:20;;;;;;;6.17;4.63;;;;;;;;;;5066410;28;20729;-79
2023/06/17 03:12:47;;;;;;;6.47;5.17;;;;;;;;;;5060649;28;20206;-79
2023/06/17 03:15:17;;;;;;;5.50;5.00;;;;;;;;;;5065332;28;20230;-79
2023/06/17 03:17:44;;;;;;;5.30;4.80;;;;;;;;;;5068627;28;20222;-79
2023/06/17 03:20:11;;;;;;;5.80;5.20;;;;;;;;;;5057313;28;20253;-79
2023/06/17 03:22:39;;;;;;;11.20;5.30;;;;;;;;;;5067413;28;20217;-79
2023/06/17 03:25:08;;;;;;;6.47;4.73;;;;;;;;;;5063843;28;20256;-79
2023/06/17 03:27:36;;;;;;;5.30;4.80;;;;;;;;;;5062652;28;20289;-78
2023/06/17 03:30:03;;;;;;;7.10;4.77;;;;;;;;;;5056910;28;20659;-79
2023/06/17 03:32:30;;;;;;;6.27;4.47;;;;;;;;;;5058182;28;20658;-79
2023/06/17 03:34:57;;;;;;;8.27;4.77;;;;;;;;;;5062170;28;20230;-80
2023/06/17 03:37:24;;;;;;;4.97;4.47;;;;;;;;;;5065765;28;20647;-80
2023/06/17 03:39:51;;;;;;;5.20;4.70;;;;;;;;;;5053525;28;20245;-80
2023/06/17 03:42:19;;;;;;;6.37;4.77;;;;;;;;;;5061656;28;20244;-79
2023/06/17 03:44:46;;;;;;;7.30;4.53;;;;;;;;;;5068811;28;20641;-79
2023/06/17 03:47:13;;;;;;;6.43;4.77;;;;;;;;;;5059555;28;20205;-80
2023/06/17 03:49:41;;;;;;;5.83;4.97;;;;;;;;;;5062374;28;20237;-80
2023/06/17 03:52:08;;;;;;;6.37;4.90;;;;;;;;;;5058702;28;20229;-79
2023/06/17 03:54:35;;;;;;;5.47;4.83;;;;;;;;;;5064453;28;20236;-79
2023/06/17 03:57:02;;;;;;;5.97;5.07;;;;;;;;;;5063330;28;20609;-79
2023/06/17 03:59:30;;;;;;;6.90;4.97;;;;;;;;;;5059783;28;20229;-79
2023/06/17 04:01:58;;;;;;;5.67;5.07;;;;;;;;;;5059832;28;20230;-80
2023/06/17 04:04:28;;;;;;;14.90;6.93;;;;;;;;;;5066239;28;20228;-79
2023/06/17 04:06:55;;;;;;;5.60;4.77;;;;;;;;;;5058954;28;20244;-80
2023/06/17 04:09:22;;;;;;;7.27;5.23;;;;;;;;;;5057072;28;20240;-79
2023/06/17 04:11:49;;;;;;;5.73;4.83;;;;;;;;;;5063052;28;20557;-79
2023/06/17 04:14:16;;;;;;;7.43;5.30;;;;;;;;;;5064569;28;20225;-79
2023/06/17 04:16:44;;;;;;;6.50;4.97;;;;;;;;;;5063968;28;20222;-79
2023/06/17 04:19:13;;;;;;;5.73;5.17;;;;;;;;;;5058504;28;20233;-79
2023/06/17 04:21:40;;;;;;;8.83;5.00;;;;;;;;;;5059634;28;20313;-79
2023/06/17 04:24:07;;;;;;;7.03;5.27;;;;;;;;;;5067350;28;20225;-79
2023/06/17 04:26:34;;;;;;;7.53;4.70;;;;;;;;;;5051378;28;20209;-79
2023/06/17 04:29:01;;;;;;;6.40;5.00;;;;;;;;;;5053743;28;20236;-79
2023/06/17 04:31:29;;;;;;;7.97;5.63;;;;;;;;;;5064350;28;20279;-79
2023/06/17 04:34:00;;;;;;;7.53;6.83;;;;;;;;;;5059235;28;20233;-79
2023/06/17 04:36:28;;;;;;;7.93;6.60;;;;;;;;;;5068904;28;20201;-79
2023/06/17 04:38:55;;;;;;;7.70;6.83;;;;;;;;;;5052343;28;20234;-79
2023/06/17 04:41:23;;;;;;;8.27;7.13;;;;;;;;;;5065337;28;20240;-79
2023/06/17 04:43:51;;;;;;;8.53;6.80;;;;;;;;;;5070730;28;20236;-79
2023/06/17 04:46:18;;;;;;;7.90;6.63;;;;;;;;;;5065922;28;20236;-79
2023/06/17 04:48:45;;;;;;;6.73;5.73;;;;;;;;;;5051347;28;20237;-79
2023/06/17 04:51:17;;;;;;;8.40;6.20;;;;;;;;;;5058477;28;20229;-80
2023/06/17 04:53:44;;;;;;;7.20;6.50;;;;;;;;;;5062083;28;20205;-79
2023/06/17 04:56:12;;;;;;;7.87;6.43;;;;;;;;;;5058971;28;20201;-79
2023/06/17 04:58:39;;;;;;;7.43;6.03;;;;;;;;;;5058290;28;20221;-79
2023/06/17 05:01:06;;;;;;;6.50;5.90;;;;;;;;;;5062607;28;20298;-80
2023/06/17 05:03:33;;;;;;;9.37;6.03;;;;;;;;;;5069232;28;20198;-79
2023/06/17 05:06:00;;;;;;;8.80;6.83;;;;;;;;;;5068196;28;20206;-79
2023/06/17 05:08:28;;;;;;;10.83;6.90;;;;;;;;;;5065555;28;20199;-80
2023/06/17 05:10:55;;;;;;;10.33;7.97;;;;;;;;;;5071416;28;20236;-80
2023/06/17 05:13:22;;;;;;;8.77;6.97;;;;;;;;;;5063361;28;20612;-79
2023/06/17 05:15:49;;;;;;;8.37;6.37;;;;;;;;;;5070276;28;20256;-80
2023/06/17 05:18:16;;;;;;;9.10;6.87;;;;;;;;;;5062804;28;20218;-80
2023/06/17 05:20:43;;;;;;;8.67;6.60;;;;;;;;;;5065616;28;20233;-79
2023/06/17 05:23:11;;;;;;;8.20;6.63;;;;;;;;;;5066062;28;20213;-80
2023/06/17 05:25:39;;;;;;;8.47;6.83;;;;;;;;;;5065394;28;20256;-80
2023/06/17 05:28:06;;;;;;;7.30;6.47;;;;;;;;;;5054511;28;20676;-79
2023/06/17 05:30:33;;;;;;;7.07;6.23;;;;;;;;;;5068843;28;20283;-79
2023/06/17 05:33:00;;;;;;;8.17;6.00;;;;;;;;;;5060504;28;20668;-79
2023/06/17 05:35:28;;;;;;;7.40;5.87;;;;;;;;;;5067826;28;20236;-79
2023/06/17 05:37:55;;;;;;;6.80;6.13;;;;;;;;;;5064874;28;20780;-79
2023/06/17 05:40:22;;;;;;;8.53;6.07;;;;;;;;;;5065310;28;20729;-79
2023/06/17 05:42:50;;;;;;;6.80;5.93;;;;;;;;;;5073274;28;20212;-79
2023/06/17 05:45:18;;;;;;;7.23;6.53;;;;;;;;;;5058052;28;20298;-79
2023/06/17 05:47:46;;;;;;;6.60;5.73;;;;;;;;;;5073739;28;20209;-79
2023/06/17 05:50:13;;;;;;;6.27;5.63;;;;;;;;;;5053554;28;20226;-79
2023/06/17 05:52:40;;;;;;;6.87;5.77;;;;;;;;;;5061259;28;20213;-79
2023/06/17 05:55:07;;;;;;;6.33;5.63;;;;;;;;;;5062775;28;20230;-79
2023/06/17 05:57:35;;;;;;;6.00;5.40;;;;;;;;;;5067650;28;20225;-79
2023/06/17 06:00:04;;;;;;;6.33;5.47;;;;;;;;;;5066642;28;20237;-77
2023/06/17 06:02:31;;;;;;;8.40;5.40;;;;;;;;;;5065415;28;20228;-78
2023/06/17 06:04:58;;;;;;;6.13;5.50;;;;;;;;;;5062724;28;20624;-78
2023/06/17 06:07:25;;;;;;;6.27;5.60;;;;;;;;;;5064199;28;20209;-78
2023/06/17 06:09:52;;;;;;;8.07;6.40;;;;;;;;;;5072914;28;20244;-78
2023/06/17 06:12:19;;;;;;;7.33;6.23;;;;;;;;;;5072046;28;20691;-78
2023/06/17 06:14:46;;;;;;;8.73;5.97;;;;;;;;;;5058065;28;20229;-78
2023/06/17 06:17:14;;;;;;;8.57;6.90;;;;;;;;;;5065271;28;20225;-78
2023/06/17 06:19:41;;;;;;;6.57;5.67;;;;;;;;;;5070586;28;20762;-79
2023/06/17 06:22:08;;;;;;;9.37;6.20;;;;;;;;;;5061797;28;20225;-79
2023/06/17 06:24:35;;;;;;;6.93;5.77;;;;;;;;;;5061741;28;20233;-80
2023/06/17 06:27:02;;;;;;;8.30;5.40;;;;;;;;;;5073311;28;20671;-80
2023/06/17 06:29:29;;;;;;;7.03;5.70;;;;;;;;;;5073059;28;20222;-80
2023/06/17 06:31:56;;;;;;;5.55;4.82;;;;;;;;;;5073184;28;20229;-80
2023/06/17 06:34:25;;;;;;;5.95;5.35;;;;;;;;;;5067991;28;20603;-80
2023/06/17 06:36:53;;;;;;;7.20;4.80;;;;;;;;;;5069456;28;20624;-79
2023/06/17 06:39:20;;;;;;;6.18;5.10;;;;;;;;;;5060984;28;20226;-80
2023/06/17 06:41:47;;;;;;;5.13;4.63;;;;;;;;;;5069317;28;20233;-79
2023/06/17 06:44:14;;;;;;;7.35;5.38;;;;;;;;;;5058491;28;20249;-79
2023/06/17 06:46:41;;;;;;;7.13;5.07;;;;;;;;;;5060316;28;20212;-80
2023/06/17 06:49:08;;;;;;;7.05;4.82;;;;;;;;;;5067512;28;20240;-80
2023/06/17 06:51:37;;;;;;;4.93;4.47;;;;;;;;;;5071358;28;20319;-80
2023/06/17 06:54:04;;;;;;;6.90;4.80;;;;;;;;;;5067465;28;20226;-80
2023/06/17 06:56:31;;;;;;;7.18;4.75;;;;;;;;;;5065230;28;20209;-80
2023/06/17 06:58:59;;;;;;;5.80;4.68;;;;;;;;;;5064449;28;20726;-79
2023/06/17 07:01:27;;;;;;;5.22;4.20;;;;;;;;;;5064239;28;20221;-79
2023/06/17 07:03:54;;;;;;;5.38;4.47;;;;;;;;;;5062509;28;20263;-78
2023/06/17 07:06:21;;;;;;;4.93;4.50;;;;;;;;;;5060428;28;20621;-79
2023/06/17 07:08:50;;;;;;;4.88;4.32;;;;;;;;;;5060042;28;20209;-79
2023/06/17 07:11:17;;;;;;;7.63;4.78;;;;;;;;;;5060567;28;20275;-79
2023/06/17 07:13:44;;;;;;;6.32;4.30;;;;;;;;;;5067130;28;20231;-79
2023/06/17 07:16:11;;;;;;;5.15;4.68;;;;;;;;;;5057673;28;20652;-79
2023/06/17 07:18:38;;;;;;;7.22;4.82;;;;;;;;;;5067750;28;20229;-78
2023/06/17 07:21:05;;;;;;;4.75;4.35;;;;;;;;;;5064829;28;20225;-79
2023/06/17 07:23:32;;;;;;;5.03;4.38;;;;;;;;;;5065531;28;20206;-79
2023/06/17 07:26:00;;;;;;;5.07;4.45;;;;;;;;;;5056425;28;20202;-80
2023/06/17 07:28:28;;;;;;;6.72;4.93;;;;;;;;;;5056689;28;20198;-79
2023/06/17 07:30:56;;;;;;;4.85;4.38;;;;;;;;;;5068971;28;20770;-79
2023/06/17 07:33:23;;;;;;;7.60;4.38;;;;;;;;;;5063067;28;20633;-78
2023/06/17 07:35:50;;;;;;;6.07;4.65;;;;;;;;;;5065045;28;20723;-79
2023/06/17 07:38:17;;;;;;;6.03;4.22;;;;;;;;;;5063962;28;20237;-79
2023/06/17 07:40:46;;;;;;;4.88;4.38;;;;;;;;;;5063870;28;20299;-80
2023/06/17 07:43:15;;;;;;;5.55;3.97;;;;;;;;;;5051561;28;20212;-80
2023/06/17 07:45:42;;;;;;;5.20;4.50;;;;;;;;;;5051159;28;20229;-80
2023/06/17 07:48:09;;;;;;;4.88;4.10;;;;;;;;;;5067948;28;20201;-80
2023/06/17 07:50:36;;;;;;;6.10;4.68;;;;;;;;;;5046736;28;20237;-80
2023/06/17 07:53:03;;;;;;;6.28;4.47;;;;;;;;;;5061668;28;20209;-79
2023/06/17 07:55:30;;;;;;;5.38;4.88;;;;;;;;;;5070626;28;20222;-80
2023/06/17 07:57:57;;;;;;;5.75;4.50;;;;;;;;;;5065897;28;20217;-82
2023/06/17 08:00:25;;;;;;;5.22;4.40;;;;;;;;;;5069146;28;20240;-82
2023/06/17 08:02:52;;;;;;;4.82;4.13;;;;;;;;;;5071688;28;20205;-80
2023/06/17 08:05:20;;;;;;;5.35;4.50;;;;;;;;;;5065307;28;20232;-82
2023/06/17 08:07:47;;;;;;;6.22;4.50;;;;;;;;;;5064785;28;20201;-80
2023/06/17 08:10:14;;;;;;;4.95;4.28;;;;;;;;;;5063289;28;20229;-81
2023/06/17 08:12:41;;;;;;;8.38;4.40;;;;;;;;;;5059729;28;20206;-82
2023/06/17 08:15:08;;;;;;;5.13;4.15;;;;;;;;;;5067624;28;20319;-81
2023/06/17 08:17:37;;;;;;;5.82;3.92;;;;;;;;;;5059855;28;20205;-81
2023/06/17 08:20:04;;;;;;;5.15;4.65;;;;;;;;;;5060620;28;20230;-80
2023/06/17 08:22:31;;;;;;;5.60;4.03;;;;;;;;;;5063067;28;20217;-81
2023/06/17 08:24:58;;;;;;;4.50;4.10;;;;;;;;;;5053122;28;20230;-81
2023/06/17 08:27:26;;;;;;;4.68;4.28;;;;;;;;;;5054726;28;20548;-81
2023/06/17 08:29:53;;;;;;;5.18;4.53;;;;;;;;;;5065683;28;20287;-80
2023/06/17 08:32:20;;;;;;;4.10;3.80;;;;;;;;;;5064276;28;20228;-78
2023/06/17 08:34:48;;;;;;;5.82;4.10;;;;;;;;;;5069227;28;20319;-78
2023/06/17 08:37:15;;;;;;;5.18;3.70;;;;;;;;;;5069094;28;20206;-78
2023/06/17 08:39:42;;;;;;;4.72;3.83;;;;;;;;;;5069863;28;20693;-78
2023/06/17 08:42:10;;;;;;;5.32;4.15;;;;;;;;;;5069923;28;20286;-79
2023/06/17 08:44:40;;;;;;;6.13;3.70;;;;;;;;;;5072759;28;20229;-78
2023/06/17 08:47:08;;;;;;;4.40;4.00;;;;;;;;;;5074794;28;20208;-78
2023/06/17 08:49:35;;;;;;;5.40;4.35;;;;;;;;;;5074639;28;20263;-79
2023/06/17 08:52:04;;;;;;;4.60;4.20;;;;;;;;;;5074869;28;20225;-79
2023/06/17 08:54:39;;;;;;;3.90;3.60;;;;;;;;;;5074342;28;20644;-79
2023/06/17 08:57:07;;;;;;;4.88;3.88;;;;;;;;;;5074727;28;20587;-78
2023/06/17 08:59:34;;;;;;;3.80;3.50;;;;;;;;;;5074616;28;20229;-78
2023/06/17 09:02:02;;;;;;;4.28;3.88;;;;;;;;;;5074527;28;20232;-78
2023/06/17 09:04:29;;;;;;;4.25;3.80;;;;;;;;;;5074273;28;20225;-78
2023/06/17 09:06:56;;;;;;;4.07;3.67;;;;;;;;;;5074309;28;20212;-79
2023/06/17 09:09:24;;;;;;;5.38;3.85;;;;;;;;;;5074392;28;20236;-79
2023/06/17 09:11:52;;;;;;;4.32;3.92;;;;;;;;;;5074401;28;20310;-79
2023/06/17 09:14:21;;;;;;;4.55;3.90;;;;;;;;;;5074085;28;20220;-79
2023/06/17 09:16:50;;;;;;;6.00;3.80;;;;;;;;;;5074276;28;20205;-79
2023/06/17 09:19:17;;;;;;;4.03;3.47;;;;;;;;;;5073843;28;20229;-78
2023/06/17 09:21:47;;;;;;;4.70;4.30;;;;;;;;;;5059575;28;20240;-78
2023/06/17 09:24:14;;;;;;;4.15;3.85;;;;;;;;;;5053945;28;20225;-79
2023/06/17 09:26:43;;;;;;;5.25;3.90;;;;;;;;;;5054097;28;20339;-78
2023/06/17 09:29:10;;;;;;;4.22;3.83;;;;;;;;;;5053911;28;20240;-79
2023/06/17 09:31:48;;;;;;;4.47;4.07;;;;;;;;;;5054178;28;20280;-79
2023/06/17 09:34:15;;;;;;;6.13;3.88;;;;;;;;;;5053650;28;20234;-79
2023/06/17 09:36:42;;;;;;;4.80;4.10;;;;;;;;;;5054233;28;20209;-78
2023/06/17 09:39:10;;;;;;;6.78;3.83;;;;;;;;;;5063450;28;20236;-78
2023/06/17 09:41:38;;;;;;;4.50;4.10;;;;;;;;;;5060209;28;20241;-78
2023/06/17 09:44:06;;;;;;;4.65;3.35;;;;;;;;;;5053542;28;20238;-79
2023/06/17 09:46:37;;;;;;;3.67;3.30;;;;;;;;;;5053864;28;20606;-79
2023/06/17 09:49:08;;;;;;;4.75;3.90;;;;;;;;;;5053470;28;20302;-79
2023/06/17 09:51:37;;;;;;;4.32;3.40;;;;;;;;;;5053953;28;20291;-79
2023/06/17 09:54:05;;;;;;;4.28;3.55;;;;;;;;;;5053215;28;20234;-79
2023/06/17 09:56:33;;;;;;;4.65;3.58;;;;;;;;;;5053125;28;20217;-79
2023/06/17 09:59:00;;;;;;;6.00;4.10;;;;;;;;;;5069631;28;20239;-79
2023/06/17 10:01:31;;;;;;;3.92;3.30;;;;;;;;;;5061724;28;20277;-79
2023/06/17 10:03:58;;;;;;;4.47;3.38;;;;;;;;;;5053353;28;20253;-79
2023/06/17 10:06:27;;;;;;;3.42;3.13;;;;;;;;;;5065534;28;20206;-78
2023/06/17 10:08:54;;;;;;;4.03;3.38;;;;;;;;;;5072986;28;20244;-79
2023/06/17 10:11:22;;;;;;;7.00;3.03;;;;;;;;;;5062112;28;20225;-79
2023/06/17 10:13:53;;;;;;;5.32;3.42;;;;;;;;;;5053116;28;20241;-79
2023/06/17 10:16:21;;;;;;;4.85;3.08;;;;;;;;;;5070155;28;20210;-78
2023/06/17 10:18:50;;;;;;;5.53;3.50;;;;;;;;;;5068046;28;20633;-79
2023/06/17 10:21:18;;;;;;;5.57;3.42;;;;;;;;;;5054020;28;20285;-79
2023/06/17 10:23:46;;;;;;;4.00;3.63;;;;;;;;;;5052975;28;20210;-79
2023/06/17 10:26:14;;;;;;;3.70;3.40;;;;;;;;;;5052891;28;20214;-78
2023/06/17 10:28:45;;;;;;;4.97;3.47;;;;;;;;;;5052782;28;20198;-79
2023/06/17 10:31:24;;;;;;;3.97;2.92;;;;;;;;;;5053116;28;20244;-79
2023/06/17 10:33:52;;;;;;;5.75;3.72;;;;;;;;;;5052769;28;20245;-79
2023/06/17 10:36:21;;;;;;;3.63;3.28;;;;;;;;;;5053039;28;20214;-79
2023/06/17 10:38:54;;;;;;;5.00;3.88;;;;;;;;;;5052533;28;20602;-79
2023/06/17 10:41:21;;;;;;;3.58;3.13;;;;;;;;;;5052951;28;20324;-79
2023/06/17 10:43:49;;;;;;;3.85;3.33;;;;;;;;;;5052584;28;20251;-79
2023/06/17 10:46:24;;;;;;;3.67;3.38;;;;;;;;;;5052434;28;20255;-79
2023/06/17 10:48:52;;;;;;;7.13;3.15;;;;;;;;;;5052316;28;20691;-79
2023/06/17 10:51:23;;;;;;;3.90;3.60;;;;;;;;;;5052830;28;20623;-79
2023/06/17 10:53:51;;;;;;;6.63;3.35;;;;;;;;;;5052587;28;20233;-79
2023/06/17 10:56:18;;;;;;;4.45;3.33;;;;;;;;;;5052707;28;20274;-79
2023/06/17 10:58:46;;;;;;;3.42;3.08;;;;;;;;;;5052126;28;20644;-79
2023/06/17 11:01:13;;;;;;;4.05;3.28;;;;;;;;;;5060732;28;20316;-79
2023/06/17 11:03:40;;;;;;;5.57;3.20;;;;;;;;;;5052239;28;20210;-79
2023/06/17 11:06:10;;;;;;;3.65;3.15;;;;;;;;;;5068692;28;20205;-79
2023/06/17 11:08:38;;;;;;;3.50;3.20;;;;;;;;;;5051086;28;20256;-77
2023/06/17 11:11:08;;;;;;;3.55;3.22;;;;;;;;;;5052144;28;20229;-77
2023/06/17 11:13:36;;;;;;;5.55;3.65;;;;;;;;;;5052064;28;20220;-77
2023/06/17 11:16:03;;;;;;;4.43;3.28;;;;;;;;;;5060331;28;20725;-77
2023/06/17 11:18:30;;;;;;;4.53;3.20;;;;;;;;;;5059581;28;20236;-77
2023/06/17 11:20:57;;;;;;;4.45;3.45;;;;;;;;;;5059485;28;20221;-77
2023/06/17 11:23:26;;;;;;;3.55;3.25;;;;;;;;;;5072352;28;20208;-77
2023/06/17 11:25:53;;;;;;;6.38;3.67;;;;;;;;;;5071297;28;20274;-77
2023/06/17 11:28:29;;;;;;;5.93;3.40;;;;;;;;;;5088594;28;21086;-78
2023/06/17 11:30:56;;;;;;;4.80;3.95;;;;;;;;;;5065799;28;20237;-79
2023/06/17 11:33:23;;;;;;;4.70;3.60;;;;;;;;;;5048433;28;20244;-79
2023/06/17 11:35:53;;;;;;;3.75;3.40;;;;;;;;;;5028366;28;20226;-79
2023/06/17 11:38:22;;;;;;;4.25;3.58;;;;;;;;;;5028298;28;20233;-78
2023/06/17 11:40:53;;;;;;;3.80;3.50;;;;;;;;;;5028021;28;20226;-78
2023/06/17 11:43:24;;;;;;;4.40;3.20;;;;;;;;;;5028214;28;20337;-78
2023/06/17 11:45:54;;;;;;;3.85;3.55;;;;;;;;;;5027641;28;20284;-79
2023/06/17 11:48:27;;;;;;;6.78;3.63;;;;;;;;;;5028341;28;20763;-78
2023/06/17 11:50:55;;;;;;;5.90;3.70;;;;;;;;;;5047748;28;20226;-78
2023/06/17 11:53:29;;;;;;;4.30;3.70;;;;;;;;;;5047951;28;20309;-78
2023/06/17 11:55:56;;;;;;;5.53;3.85;;;;;;;;;;5027536;28;20221;-79
2023/06/17 11:58:26;;;;;;;4.53;3.72;;;;;;;;;;5027917;28;20202;-78
2023/06/17 12:00:59;;;;;;;3.88;3.55;;;;;;;;;;5052909;28;20680;-78
2023/06/17 12:03:26;;;;;;;4.47;3.80;;;;;;;;;;5056171;28;20263;-78
2023/06/17 12:05:53;;;;;;;4.05;3.70;;;;;;;;;;5027194;28;20230;-78
2023/06/17 12:08:20;;;;;;;7.43;3.55;;;;;;;;;;5027436;28;20237;-78
2023/06/17 12:10:47;;;;;;;4.50;3.40;;;;;;;;;;5027383;28;20241;-78
2023/06/17 12:13:16;;;;;;;7.15;3.70;;;;;;;;;;5027606;28;20213;-78
2023/06/17 12:15:43;;;;;;;3.85;3.53;;;;;;;;;;5027418;28;20222;-78
2023/06/17 12:18:12;;;;;;;4.60;3.50;;;;;;;;;;5027390;28;20998;-78
2023/06/17 12:20:40;;;;;;;4.13;3.72;;;;;;;;;;5026610;28;20233;-79
2023/06/17 12:23:08;;;;;;;3.85;3.22;;;;;;;;;;5019223;28;20664;-78
2023/06/17 12:25:35;;;;;;;3.88;3.55;;;;;;;;;;5027169;28;20230;-78
2023/06/17 12:28:02;;;;;;;4.05;3.65;;;;;;;;;;5027183;28;20260;-78
2023/06/17 12:30:29;;;;;;;5.03;3.70;;;;;;;;;;5026845;28;20346;-79
2023/06/17 12:32:57;;;;;;;5.22;4.10;;;;;;;;;;5027286;28;20740;-78
2023/06/17 12:35:25;;;;;;;4.97;4.18;;;;;;;;;;5026806;28;20230;-78
2023/06/17 12:37:54;;;;;;;5.43;3.80;;;;;;;;;;5024796;28;20207;-78
2023/06/17 12:40:21;;;;;;;3.70;3.40;;;;;;;;;;5013642;28;20234;-78
2023/06/17 12:42:48;;;;;;;4.35;3.95;;;;;;;;;;5014217;28;20203;-78
2023/06/17 12:45:15;;;;;;;4.57;4.18;;;;;;;;;;5013393;28;20235;-78
2023/06/17 12:47:42;;;;;;;4.53;3.58;;;;;;;;;;5014022;28;20313;-78
2023/06/17 12:50:11;;;;;;;8.60;4.05;;;;;;;;;;5013242;28;20231;-78
2023/06/17 12:52:39;;;;;;;3.88;3.58;;;;;;;;;;5013853;28;20583;-78
2023/06/17 12:55:07;;;;;;;5.50;4.47;;;;;;;;;;5013104;28;20301;-79
2023/06/17 12:57:34;;;;;;;4.93;4.35;;;;;;;;;;5013864;28;20230;-79
2023/06/17 13:00:04;;;;;;;3.95;3.40;;;;;;;;;;5013259;28;20223;-79
2023/06/17 13:02:32;;;;;;;4.32;3.83;;;;;;;;;;5013696;28;20227;-79
2023/06/17 13:04:59;;;;;;;3.58;3.28;;;;;;;;;;5012991;28;20285;-79
2023/06/17 13:07:26;;;;;;;3.90;3.60;;;;;;;;;;5013505;28;20222;-78
2023/06/17 13:09:55;;;;;;;3.75;3.45;;;;;;;;;;5012893;28;20223;-78
2023/06/17 13:12:22;;;;;;;3.85;3.55;;;;;;;;;;5013337;28;20592;-78
2023/06/17 13:14:50;;;;;;;3.90;3.60;;;;;;;;;;5013093;28;20596;-78
2023/06/17 13:17:17;;;;;;;5.43;3.47;;;;;;;;;;5013265;28;20296;-78
2023/06/17 13:19:44;;;;;;;4.40;4.00;;;;;;;;;;5013212;28;20223;-78
2023/06/17 13:22:11;;;;;;;4.68;3.78;;;;;;;;;;5013084;28;20235;-78
2023/06/17 13:24:38;;;;;;;5.00;3.92;;;;;;;;;;5012907;28;20223;-78
2023/06/17 13:27:07;;;;;;;4.55;3.75;;;;;;;;;;5013200;28;20223;-78
2023/06/17 13:29:34;;;;;;;4.28;3.88;;;;;;;;;;5004766;28;20223;-78
2023/06/17 13:32:01;;;;;;;4.18;3.78;;;;;;;;;;5013005;28;20244;-78
2023/06/17 13:34:28;;;;;;;4.82;3.72;;;;;;;;;;5012746;28;20732;-78
2023/06/17 13:36:55;;;;;;;5.05;4.55;;;;;;;;;;5012868;28;20215;-79
2023/06/17 13:39:22;;;;;;;5.35;3.60;;;;;;;;;;5012682;28;20242;-79
2023/06/17 13:41:49;;;;;;;4.10;3.45;;;;;;;;;;5012867;28;20602;-79
2023/06/17 13:44:18;;;;;;;4.57;3.47;;;;;;;;;;5012401;28;20250;-78
2023/06/17 13:46:46;;;;;;;4.18;3.78;;;;;;;;;;5012711;28;20208;-78
2023/06/17 13:49:13;;;;;;;4.95;3.67;;;;;;;;;;5012036;28;20237;-79
2023/06/17 13:51:40;;;;;;;4.03;3.63;;;;;;;;;;5012167;28;20231;-79
2023/06/17 13:54:09;;;;;;;4.05;3.65;;;;;;;;;;5012195;28;20231;-79
2023/06/17 13:56:36;;;;;;;5.57;3.70;;;;;;;;;;5004501;28;20219;-79
2023/06/17 13:59:03;;;;;;;4.30;3.90;;;;;;;;;;5012051;28;20259;-79
2023/06/17 14:01:31;;;;;;;3.85;3.55;;;;;;;;;;5012408;28;20232;-79
2023/06/17 14:03:58;;;;;;;4.32;3.90;;;;;;;;;;5012275;28;20239;-78
2023/06/17 14:06:26;;;;;;;4.35;3.97;;;;;;;;;;5012098;28;20556;-78
2023/06/17 14:08:53;;;;;;;4.05;3.65;;;;;;;;;;5011891;28;20238;-78
2023/06/17 14:11:20;;;;;;;4.65;3.53;;;;;;;;;;5012210;28;20318;-78
2023/06/17 14:13:47;;;;;;;6.32;3.75;;;;;;;;;;5012258;28;20302;-78
2023/06/17 14:16:14;;;;;;;6.22;3.85;;;;;;;;;;5012345;28;20281;-78
2023/06/17 14:18:43;;;;;;;6.03;3.58;;;;;;;;;;5012145;28;20199;-78
2023/06/17 14:21:27;;;;;;;4.40;4.00;;;;;;;;;;5012074;28;20629;-79
2023/06/17 14:24:00;;;;;;;3.92;3.53;;;;;;;;;;5012235;28;20231;-79
2023/06/17 14:26:27;;;;;;;4.28;3.72;;;;;;;;;;5011959;28;20241;-79
2023/06/17 14:28:54;;;;;;;4.03;3.60;;;;;;;;;;5011785;28;20266;-79
2023/06/17 14:31:21;;;;;;;4.70;3.78;;;;;;;;;;5010757;28;20227;-79
2023/06/17 14:33:50;;;;;;;3.85;3.50;;;;;;;;;;4996910;28;20212;-79
2023/06/17 14:36:17;;;;;;;5.38;3.65;;;;;;;;;;5011737;28;20219;-79
2023/06/17 14:38:44;;;;;;;3.65;3.40;;;;;;;;;;5011446;28;20691;-79
2023/06/17 14:41:11;;;;;;;5.63;3.38;;;;;;;;;;5011649;28;20231;-79
2023/06/17 14:43:38;;;;;;;5.88;3.45;;;;;;;;;;5011678;28;20262;-77
2023/06/17 14:46:05;;;;;;;4.25;3.45;;;;;;;;;;5011473;28;20582;-77